Time;durP1;ratioP1;P1;durP2;ratioP2;P2;SDS_P1;SDS_P2;PMS_P1;PMS_P2;Temp;Humidity;BMP_temperature;BMP_pressure;BME280_temperature;BME280_humidity;BME280_pressure;Samples;Min_cycle;Max_cycle;Signal;HPM_P1;HPM_P2
2023/08/19 00:01:34;;;;;;;43.38;20.83;;;;;;;;;;5063580;28;20044;-87
2023/08/19 00:04:00;;;;;;;39.22;18.13;;;;;;;;;;5069839;28;20436;-87
2023/08/19 00:06:36;;;;;;;41.90;18.90;;;;;;;;;;5060038;28;20506;-87
2023/08/19 00:09:03;;;;;;;35.30;18.63;;;;;;;;;;5056981;28;20027;-87
2023/08/19 00:11:29;;;;;;;39.80;21.25;;;;;;;;;;5076073;28;20047;-87
2023/08/19 00:14:00;;;;;;;38.03;19.00;;;;;;;;;;5073546;28;20024;-87
2023/08/19 00:16:25;;;;;;;37.00;19.92;;;;;;;;;;5071932;28;20023;-87
2023/08/19 00:18:51;;;;;;;38.20;19.83;;;;;;;;;;5077002;28;20040;-86
2023/08/19 00:21:16;;;;;;;38.45;19.55;;;;;;;;;;5079453;28;20028;-87
2023/08/19 00:23:42;;;;;;;37.72;18.85;;;;;;;;;;5070738;28;20050;-87
2023/08/19 00:26:11;;;;;;;31.38;18.02;;;;;;;;;;5084687;28;20126;-87
2023/08/19 00:28:37;;;;;;;38.85;18.77;;;;;;;;;;5072455;28;20020;-87
2023/08/19 00:31:03;;;;;;;34.00;17.83;;;;;;;;;;5062340;28;20036;-87
2023/08/19 00:33:35;;;;;;;33.63;18.15;;;;;;;;;;5062970;28;20480;-87
2023/08/19 00:36:00;;;;;;;34.55;16.83;;;;;;;;;;5058188;28;20017;-87
2023/08/19 00:38:26;;;;;;;35.58;17.50;;;;;;;;;;5066629;28;20032;-87
2023/08/19 00:40:51;;;;;;;30.50;16.58;;;;;;;;;;5081081;28;20028;-87
2023/08/19 00:43:17;;;;;;;27.92;16.55;;;;;;;;;;5077541;28;20016;-87
2023/08/19 00:45:49;;;;;;;26.95;15.55;;;;;;;;;;5062575;28;20024;-87
2023/08/19 00:48:15;;;;;;;28.98;16.55;;;;;;;;;;5061931;28;20019;-87
2023/08/19 00:50:41;;;;;;;32.50;16.75;;;;;;;;;;5095427;28;20016;-86
2023/08/19 00:53:23;;;;;;;32.92;17.17;;;;;;;;;;5059613;28;20119;-87
2023/08/19 00:55:51;;;;;;;30.45;15.48;;;;;;;;;;5055506;28;20092;-87
2023/08/19 00:58:20;;;;;;;26.40;15.52;;;;;;;;;;5055166;28;20065;-86
2023/08/19 01:00:46;;;;;;;28.05;15.80;;;;;;;;;;5063782;28;20023;-87
2023/08/19 01:03:11;;;;;;;27.48;15.20;;;;;;;;;;5071737;28;20020;-87
2023/08/19 01:05:43;;;;;;;33.90;15.10;;;;;;;;;;5069326;28;20048;-86
2023/08/19 01:08:10;;;;;;;29.90;15.48;;;;;;;;;;5067615;28;20024;-87
2023/08/19 01:10:39;;;;;;;26.58;15.73;;;;;;;;;;5079496;28;20088;-87
2023/08/19 01:13:14;;;;;;;30.58;15.45;;;;;;;;;;5063031;28;20081;-87
2023/08/19 01:15:57;;;;;;;29.60;14.93;;;;;;;;;;5073954;28;20036;-87
2023/08/19 01:18:23;;;;;;;24.15;14.15;;;;;;;;;;5063089;28;20086;-87
2023/08/19 01:20:49;;;;;;;28.17;14.15;;;;;;;;;;5074123;28;20527;-87
2023/08/19 01:23:23;;;;;;;22.50;13.57;;;;;;;;;;5083141;28;20024;-87
2023/08/19 01:25:55;;;;;;;22.13;12.75;;;;;;;;;;5076372;28;20478;-87
2023/08/19 01:28:20;;;;;;;21.55;12.98;;;;;;;;;;5065304;28;20024;-87
2023/08/19 01:30:46;;;;;;;22.02;12.77;;;;;;;;;;5060266;28;20017;-87
2023/08/19 01:33:11;;;;;;;24.45;12.88;;;;;;;;;;5057531;28;20484;-87
2023/08/19 01:35:38;;;;;;;21.92;12.55;;;;;;;;;;5074282;28;20093;-87
2023/08/19 01:38:30;;;;;;;21.35;12.43;;;;;;;;;;5056012;28;20443;-87
2023/08/19 01:40:55;;;;;;;20.13;11.70;;;;;;;;;;5052162;28;20029;-87
2023/08/19 01:43:21;;;;;;;20.85;11.95;;;;;;;;;;5075507;28;20020;-87
2023/08/19 01:45:50;;;;;;;23.25;12.63;;;;;;;;;;5071293;28;20440;-87
2023/08/19 01:48:16;;;;;;;22.85;11.63;;;;;;;;;;5073805;28;20074;-87
2023/08/19 01:50:44;;;;;;;19.08;12.00;;;;;;;;;;5078300;28;20355;-87
2023/08/19 01:53:12;;;;;;;21.13;12.45;;;;;;;;;;5066046;28;20021;-87
2023/08/19 01:55:44;;;;;;;22.10;11.65;;;;;;;;;;5056092;28;20017;-87
2023/08/19 01:58:12;;;;;;;20.45;11.52;;;;;;;;;;5055773;28;20397;-87
2023/08/19 02:00:40;;;;;;;23.10;12.07;;;;;;;;;;5066104;28;20029;-87
2023/08/19 02:03:07;;;;;;;18.42;11.35;;;;;;;;;;5069050;28;20020;-87
2023/08/19 02:05:33;;;;;;;20.83;12.35;;;;;;;;;;5082275;28;20040;-87
2023/08/19 02:08:00;;;;;;;22.13;12.05;;;;;;;;;;5074971;28;20019;-87
2023/08/19 02:10:26;;;;;;;18.85;11.02;;;;;;;;;;5055015;28;20031;-87
2023/08/19 02:12:51;;;;;;;21.83;11.50;;;;;;;;;;5073519;28;20021;-87
2023/08/19 02:15:17;;;;;;;18.75;11.00;;;;;;;;;;5055364;28;20024;-87
2023/08/19 02:17:45;;;;;;;21.23;12.23;;;;;;;;;;5055558;28;20054;-87
2023/08/19 02:20:11;;;;;;;22.38;11.85;;;;;;;;;;5074594;28;20466;-87
2023/08/19 02:22:38;;;;;;;18.92;11.50;;;;;;;;;;5085093;28;20467;-88
2023/08/19 02:25:04;;;;;;;21.48;11.32;;;;;;;;;;5055044;28;20020;-87
2023/08/19 02:27:31;;;;;;;19.35;11.07;;;;;;;;;;5073260;28;20013;-86
2023/08/19 02:29:56;;;;;;;22.80;11.98;;;;;;;;;;5053651;28;20346;-87
2023/08/19 02:32:21;;;;;;;18.98;11.02;;;;;;;;;;5069230;28;20070;-85
2023/08/19 02:34:47;;;;;;;19.63;11.23;;;;;;;;;;5054492;28;20033;-87
2023/08/19 02:37:13;;;;;;;20.02;10.73;;;;;;;;;;5068708;28;20072;-86
2023/08/19 02:39:41;;;;;;;16.77;10.43;;;;;;;;;;5063256;28;20435;-87
2023/08/19 02:42:11;;;;;;;17.63;10.63;;;;;;;;;;5068840;28;20158;-87
2023/08/19 02:44:37;;;;;;;17.45;10.13;;;;;;;;;;5072226;28;20126;-87
2023/08/19 02:47:02;;;;;;;19.50;10.07;;;;;;;;;;5055167;28;20432;-87
2023/08/19 02:49:28;;;;;;;18.60;9.95;;;;;;;;;;5069118;28;20103;-87
2023/08/19 02:51:56;;;;;;;15.45;9.43;;;;;;;;;;5071332;28;20032;-87
2023/08/19 02:54:21;;;;;;;18.60;9.55;;;;;;;;;;5052150;28;20071;-87
2023/08/19 02:56:47;;;;;;;15.25;9.57;;;;;;;;;;5056966;28;20024;-87
2023/08/19 02:59:15;;;;;;;14.40;8.45;;;;;;;;;;5055393;28;20050;-87
2023/08/19 03:01:44;;;;;;;16.48;9.20;;;;;;;;;;5055409;28;20050;-87
2023/08/19 03:04:09;;;;;;;15.50;8.95;;;;;;;;;;5055919;28;20017;-88
2023/08/19 03:06:37;;;;;;;13.63;8.52;;;;;;;;;;5077690;28;20021;-87
2023/08/19 03:09:02;;;;;;;18.75;9.57;;;;;;;;;;5075943;28;20017;-87
2023/08/19 03:11:28;;;;;;;16.70;9.75;;;;;;;;;;5079116;28;20100;-87
2023/08/19 03:14:00;;;;;;;21.42;9.93;;;;;;;;;;5078557;28;20115;-87
2023/08/19 03:16:26;;;;;;;17.85;10.45;;;;;;;;;;5085014;28;20024;-87
2023/08/19 03:19:00;;;;;;;15.85;8.63;;;;;;;;;;5074403;28;20020;-87
2023/08/19 03:21:27;;;;;;;12.82;8.23;;;;;;;;;;5069566;28;20029;-87
2023/08/19 03:23:53;;;;;;;17.30;8.90;;;;;;;;;;5069162;28;20073;-87
2023/08/19 03:26:18;;;;;;;16.40;9.45;;;;;;;;;;5062440;28;20012;-87
2023/08/19 03:28:44;;;;;;;18.75;9.48;;;;;;;;;;5056909;28;20024;-87
2023/08/19 03:31:10;;;;;;;13.43;7.97;;;;;;;;;;5087120;28;20107;-86
2023/08/19 03:33:37;;;;;;;14.50;8.77;;;;;;;;;;5064438;28;20433;-87
2023/08/19 03:36:02;;;;;;;17.00;9.02;;;;;;;;;;5057387;28;20020;-86
2023/08/19 03:38:27;;;;;;;15.70;9.20;;;;;;;;;;5084725;28;20023;-87
2023/08/19 03:40:53;;;;;;;18.25;10.32;;;;;;;;;;5077721;28;20115;-87
2023/08/19 03:43:18;;;;;;;17.95;10.15;;;;;;;;;;5076137;28;20063;-87
2023/08/19 03:45:43;;;;;;;19.15;9.95;;;;;;;;;;5057904;28;20655;-87
2023/08/19 03:48:09;;;;;;;15.65;9.18;;;;;;;;;;5072033;28;20012;-87
2023/08/19 03:50:34;;;;;;;16.52;9.20;;;;;;;;;;5091554;28;20044;-87
2023/08/19 03:53:02;;;;;;;14.18;8.82;;;;;;;;;;5060895;28;20051;-87
2023/08/19 03:55:28;;;;;;;17.92;8.63;;;;;;;;;;5056024;28;20111;-87
2023/08/19 03:57:55;;;;;;;17.20;8.93;;;;;;;;;;5057020;28;20038;-87
2023/08/19 04:00:20;;;;;;;15.95;8.90;;;;;;;;;;5058211;28;20460;-87
2023/08/19 04:02:45;;;;;;;15.98;8.05;;;;;;;;;;5058251;28;20070;-87
2023/08/19 04:05:11;;;;;;;13.85;8.40;;;;;;;;;;5057891;28;20013;-87
2023/08/19 04:07:37;;;;;;;12.02;7.95;;;;;;;;;;5077844;28;20016;-87
2023/08/19 04:10:03;;;;;;;16.38;8.70;;;;;;;;;;5078197;28;20021;-87
2023/08/19 04:12:29;;;;;;;14.48;8.15;;;;;;;;;;5087335;28;20016;-87
2023/08/19 04:14:54;;;;;;;14.75;8.32;;;;;;;;;;5091107;28;20024;-87
2023/08/19 04:17:20;;;;;;;15.02;9.05;;;;;;;;;;5075593;28;20027;-87
2023/08/19 04:19:48;;;;;;;13.38;8.48;;;;;;;;;;5059096;28;20111;-87
2023/08/19 04:22:15;;;;;;;15.50;8.80;;;;;;;;;;5075723;28;20390;-87
2023/08/19 04:24:40;;;;;;;14.77;8.25;;;;;;;;;;5067598;28;20039;-87
2023/08/19 04:27:08;;;;;;;18.95;8.45;;;;;;;;;;5074076;28;20020;-87
2023/08/19 04:29:34;;;;;;;13.43;7.57;;;;;;;;;;5093060;28;20106;-87
2023/08/19 04:32:00;;;;;;;17.42;8.27;;;;;;;;;;5080192;28;20183;-87
2023/08/19 04:34:26;;;;;;;19.15;9.35;;;;;;;;;;5084721;28;20024;-87
2023/08/19 04:36:51;;;;;;;14.60;8.73;;;;;;;;;;5098374;28;20058;-87
2023/08/19 04:39:17;;;;;;;19.60;8.98;;;;;;;;;;5078343;28;20020;-87
2023/08/19 04:41:42;;;;;;;11.55;7.70;;;;;;;;;;5061481;28;20032;-87
2023/08/19 04:44:08;;;;;;;11.77;8.02;;;;;;;;;;5079431;28;20063;-87
2023/08/19 04:46:33;;;;;;;14.70;8.55;;;;;;;;;;5088607;28;20024;-84
2023/08/19 04:48:58;;;;;;;19.48;9.13;;;;;;;;;;5076938;28;20077;-85
2023/08/19 04:51:24;;;;;;;15.43;8.55;;;;;;;;;;5092969;28;20016;-85
2023/08/19 04:53:52;;;;;;;13.50;8.15;;;;;;;;;;5057994;28;20115;-84
2023/08/19 04:56:20;;;;;;;13.48;8.50;;;;;;;;;;5070278;28;20093;-85
2023/08/19 04:58:50;;;;;;;11.57;7.93;;;;;;;;;;5094169;28;20031;-84
2023/08/19 05:01:16;;;;;;;12.98;7.60;;;;;;;;;;5074273;28;20359;-83
2023/08/19 05:03:41;;;;;;;15.10;8.25;;;;;;;;;;5074965;28;20016;-83
2023/08/19 05:06:09;;;;;;;15.00;7.68;;;;;;;;;;5061925;28;20028;-83
2023/08/19 05:08:41;;;;;;;14.15;8.35;;;;;;;;;;5073078;28;20028;-83
2023/08/19 05:11:06;;;;;;;12.63;8.25;;;;;;;;;;5063530;28;20024;-83
2023/08/19 05:13:31;;;;;;;15.75;8.27;;;;;;;;;;5072348;28;20016;-83
2023/08/19 05:16:00;;;;;;;14.70;8.13;;;;;;;;;;5064724;28;20035;-83
2023/08/19 05:18:28;;;;;;;11.93;7.25;;;;;;;;;;5069923;28;20699;-83
2023/08/19 05:20:53;;;;;;;13.40;8.10;;;;;;;;;;5074355;28;20378;-83
2023/08/19 05:23:19;;;;;;;12.32;7.32;;;;;;;;;;5074292;28;20106;-84
2023/08/19 05:25:44;;;;;;;14.32;8.10;;;;;;;;;;5068411;28;20048;-83
2023/08/19 05:28:10;;;;;;;11.57;7.88;;;;;;;;;;5056117;28;20020;-83
2023/08/19 05:30:35;;;;;;;20.85;9.82;;;;;;;;;;5070396;28;20012;-82
2023/08/19 05:33:01;;;;;;;18.83;9.77;;;;;;;;;;5074921;28;20505;-83
2023/08/19 05:35:29;;;;;;;16.17;8.30;;;;;;;;;;5059506;28;20020;-82
2023/08/19 05:37:55;;;;;;;15.77;7.75;;;;;;;;;;5058524;28;20438;-82
2023/08/19 05:40:20;;;;;;;11.38;7.45;;;;;;;;;;5086925;28;20024;-83
2023/08/19 05:42:45;;;;;;;11.63;7.63;;;;;;;;;;5074487;28;20020;-82
2023/08/19 05:45:10;;;;;;;10.63;7.20;;;;;;;;;;5066221;28;20055;-82
2023/08/19 05:47:37;;;;;;;12.55;7.47;;;;;;;;;;5058530;28;20057;-83
2023/08/19 05:50:02;;;;;;;12.40;7.65;;;;;;;;;;5055059;28;20444;-82
2023/08/19 05:52:28;;;;;;;14.85;7.70;;;;;;;;;;5074253;28;20060;-83
2023/08/19 05:54:53;;;;;;;10.77;7.20;;;;;;;;;;5062770;28;20035;-82
2023/08/19 05:57:19;;;;;;;12.40;7.28;;;;;;;;;;5066680;28;20421;-82
2023/08/19 05:59:44;;;;;;;14.90;7.68;;;;;;;;;;5061233;28;20020;-82
2023/08/19 06:02:10;;;;;;;11.82;7.50;;;;;;;;;;5079410;28;20019;-84
2023/08/19 06:04:35;;;;;;;17.75;7.30;;;;;;;;;;5064465;28;20024;-83
2023/08/19 06:07:03;;;;;;;14.55;7.20;;;;;;;;;;5068516;28;20465;-83
2023/08/19 06:09:29;;;;;;;15.68;7.40;;;;;;;;;;5067773;28;20016;-82
2023/08/19 06:11:58;;;;;;;11.95;6.32;;;;;;;;;;5046973;28;20021;-82
2023/08/19 06:14:23;;;;;;;12.48;7.25;;;;;;;;;;5049632;28;20037;-83
2023/08/19 06:16:49;;;;;;;12.43;6.90;;;;;;;;;;5061967;28;20107;-82
2023/08/19 06:19:15;;;;;;;11.80;7.55;;;;;;;;;;5048957;28;20364;-83
2023/08/19 06:21:40;;;;;;;11.00;6.80;;;;;;;;;;5057657;28;20020;-83
2023/08/19 06:24:06;;;;;;;12.25;7.82;;;;;;;;;;5074708;28;20067;-83
2023/08/19 06:26:31;;;;;;;15.35;7.05;;;;;;;;;;5068539;28;20032;-83
2023/08/19 06:28:59;;;;;;;10.35;6.90;;;;;;;;;;5068443;28;20017;-83
2023/08/19 06:31:24;;;;;;;12.25;7.03;;;;;;;;;;5054363;28;20064;-83
2023/08/19 06:33:50;;;;;;;17.17;7.72;;;;;;;;;;5077152;28;20020;-83
2023/08/19 06:36:17;;;;;;;15.98;8.93;;;;;;;;;;5073691;28;20024;-83
2023/08/19 06:38:46;;;;;;;15.15;8.18;;;;;;;;;;5072484;28;20081;-82
2023/08/19 06:41:11;;;;;;;19.48;8.00;;;;;;;;;;5058209;28;20386;-83
2023/08/19 06:43:37;;;;;;;16.80;7.97;;;;;;;;;;5055693;28;20518;-83
2023/08/19 06:46:04;;;;;;;18.33;9.15;;;;;;;;;;5064559;28;20017;-83
2023/08/19 06:48:33;;;;;;;15.10;8.07;;;;;;;;;;5070619;28;20372;-83
2023/08/19 06:50:59;;;;;;;15.55;7.85;;;;;;;;;;5087797;28;20451;-83
2023/08/19 06:53:25;;;;;;;13.93;7.88;;;;;;;;;;5063984;28;20141;-83
2023/08/19 06:55:57;;;;;;;12.32;7.70;;;;;;;;;;5078236;28;20050;-83
2023/08/19 06:58:26;;;;;;;12.40;7.70;;;;;;;;;;5071326;28;20020;-82
2023/08/19 07:00:58;;;;;;;15.02;6.97;;;;;;;;;;5060499;28;20070;-84
2023/08/19 07:03:27;;;;;;;10.38;7.07;;;;;;;;;;5072459;28;20097;-83
2023/08/19 07:06:00;;;;;;;12.65;7.15;;;;;;;;;;5061806;28;20086;-83
2023/08/19 07:08:32;;;;;;;13.98;6.88;;;;;;;;;;5061967;28;20383;-83
2023/08/19 07:11:00;;;;;;;11.95;7.85;;;;;;;;;;5090534;28;20028;-83
2023/08/19 07:13:28;;;;;;;15.02;7.47;;;;;;;;;;5079097;28;20352;-83
2023/08/19 07:16:03;;;;;;;11.10;7.10;;;;;;;;;;5066872;28;20064;-83
2023/08/19 07:18:32;;;;;;;14.10;7.72;;;;;;;;;;5079651;28;20494;-82
2023/08/19 07:20:58;;;;;;;14.38;7.13;;;;;;;;;;5070356;28;20028;-83
2023/08/19 07:23:26;;;;;;;12.73;7.53;;;;;;;;;;5073275;28;20048;-86
2023/08/19 07:25:52;;;;;;;12.35;7.85;;;;;;;;;;5060203;28;20029;-86
2023/08/19 07:28:21;;;;;;;13.00;7.18;;;;;;;;;;5067108;28;20021;-85
2023/08/19 07:30:47;;;;;;;11.90;7.32;;;;;;;;;;5056010;28;20028;-86
2023/08/19 07:33:12;;;;;;;17.95;8.60;;;;;;;;;;5055154;28;20120;-86
2023/08/19 07:35:41;;;;;;;15.70;7.53;;;;;;;;;;5073171;28;20135;-86
2023/08/19 07:38:07;;;;;;;13.68;7.88;;;;;;;;;;5067978;28;20094;-86
2023/08/19 07:40:32;;;;;;;16.55;7.78;;;;;;;;;;5076540;28;20482;-86
2023/08/19 07:42:58;;;;;;;17.10;7.90;;;;;;;;;;5070750;28;20032;-87
2023/08/19 07:45:23;;;;;;;13.43;7.90;;;;;;;;;;5065855;28;20012;-87
2023/08/19 07:47:54;;;;;;;15.40;7.57;;;;;;;;;;5076454;28;20025;-87
2023/08/19 07:50:22;;;;;;;15.75;8.35;;;;;;;;;;5092105;28;20075;-88
2023/08/19 07:52:48;;;;;;;15.98;10.10;;;;;;;;;;5075616;28;20091;-87
2023/08/19 07:55:13;;;;;;;18.15;10.77;;;;;;;;;;5058979;28;20303;-88
2023/08/19 07:57:38;;;;;;;19.58;10.38;;;;;;;;;;5058432;28;20032;-87
2023/08/19 08:00:04;;;;;;;18.77;9.55;;;;;;;;;;5058463;28;20056;-87
2023/08/19 08:02:29;;;;;;;16.02;8.60;;;;;;;;;;5076621;28;20021;-88
2023/08/19 08:04:55;;;;;;;14.77;8.57;;;;;;;;;;5069932;28;20032;-88
2023/08/19 08:07:22;;;;;;;13.15;7.63;;;;;;;;;;5078308;28;20157;-88
2023/08/19 08:09:48;;;;;;;12.05;7.80;;;;;;;;;;5073903;28;20023;-88
2023/08/19 08:12:13;;;;;;;12.80;7.65;;;;;;;;;;5082637;28;20024;-88
2023/08/19 08:14:38;;;;;;;15.63;7.65;;;;;;;;;;5070958;28;20479;-87
2023/08/19 08:17:04;;;;;;;11.60;7.25;;;;;;;;;;5061250;28;20028;-88
2023/08/19 08:19:29;;;;;;;13.02;8.57;;;;;;;;;;5061660;28;20127;-88
2023/08/19 08:21:54;;;;;;;10.32;6.93;;;;;;;;;;5057766;28;20024;-88
2023/08/19 08:24:20;;;;;;;11.55;7.10;;;;;;;;;;5049789;28;20020;-89
2023/08/19 08:26:46;;;;;;;17.05;7.40;;;;;;;;;;5074305;28;20552;-88
2023/08/19 08:29:11;;;;;;;12.10;7.60;;;;;;;;;;5074364;28;20023;-89
2023/08/19 08:31:40;;;;;;;12.38;7.40;;;;;;;;;;5055003;28;20017;-89
2023/08/19 08:34:07;;;;;;;15.35;7.60;;;;;;;;;;5090238;28;20039;-88
2023/08/19 08:36:33;;;;;;;13.63;8.77;;;;;;;;;;5063161;28;20024;-88
2023/08/19 08:38:58;;;;;;;16.98;9.15;;;;;;;;;;5071494;28;20047;-89
2023/08/19 08:41:24;;;;;;;16.33;8.60;;;;;;;;;;5067434;28;20035;-88
2023/08/19 08:43:50;;;;;;;14.18;8.27;;;;;;;;;;5057994;28;20059;-89
2023/08/19 08:46:17;;;;;;;11.80;6.85;;;;;;;;;;5064436;28;20191;-88
2023/08/19 08:48:44;;;;;;;13.23;8.10;;;;;;;;;;5057912;28;20032;-88
2023/08/19 08:51:09;;;;;;;17.73;8.02;;;;;;;;;;5075223;28;20012;-89
2023/08/19 08:53:35;;;;;;;11.65;7.28;;;;;;;;;;5057493;28;20016;-88
2023/08/19 08:56:00;;;;;;;12.38;7.38;;;;;;;;;;5071466;28;20016;-89
2023/08/19 08:58:26;;;;;;;14.23;9.30;;;;;;;;;;5061192;28;20164;-89
2023/08/19 09:00:52;;;;;;;15.85;8.75;;;;;;;;;;5061796;28;20028;-88
2023/08/19 09:03:22;;;;;;;11.00;7.50;;;;;;;;;;5074829;28;20035;-89
2023/08/19 09:05:48;;;;;;;12.30;7.68;;;;;;;;;;5053860;28;20341;-88
2023/08/19 09:08:15;;;;;;;15.25;8.10;;;;;;;;;;5074927;28;20089;-89
2023/08/19 09:10:43;;;;;;;13.48;8.20;;;;;;;;;;5059597;28;20406;-88
2023/08/19 09:13:09;;;;;;;18.85;8.90;;;;;;;;;;5078275;28;20029;-88
2023/08/19 09:15:34;;;;;;;13.05;7.25;;;;;;;;;;5068489;28;20032;-88
2023/08/19 09:18:03;;;;;;;16.27;9.27;;;;;;;;;;5061400;28;20037;-88
2023/08/19 09:20:31;;;;;;;13.98;7.80;;;;;;;;;;5061433;28;20080;-88
2023/08/19 09:23:06;;;;;;;10.65;7.47;;;;;;;;;;5062041;28;20043;-88
2023/08/19 09:25:32;;;;;;;16.63;7.03;;;;;;;;;;5055626;28;20024;-88
2023/08/19 09:27:57;;;;;;;14.73;7.05;;;;;;;;;;5057226;28;20031;-88
2023/08/19 09:30:22;;;;;;;13.20;7.88;;;;;;;;;;5054987;28;20063;-88
2023/08/19 09:32:51;;;;;;;15.45;8.13;;;;;;;;;;5071696;28;20020;-88
2023/08/19 09:35:16;;;;;;;11.02;8.10;;;;;;;;;;5056853;28;20067;-88
2023/08/19 09:37:41;;;;;;;10.73;7.45;;;;;;;;;;5067831;28;20020;-88
2023/08/19 09:40:18;;;;;;;16.17;7.45;;;;;;;;;;5067312;28;20024;-89
2023/08/19 09:42:47;;;;;;;17.67;8.13;;;;;;;;;;5054987;28;20044;-87
2023/08/19 09:45:16;;;;;;;13.10;7.75;;;;;;;;;;5056556;28;20024;-89
2023/08/19 09:47:49;;;;;;;11.27;7.15;;;;;;;;;;5054921;28;20025;-88
2023/08/19 09:50:15;;;;;;;12.88;8.13;;;;;;;;;;5055734;28;20016;-88
2023/08/19 09:52:54;;;;;;;16.42;8.98;;;;;;;;;;5053700;28;20035;-88
2023/08/19 09:55:27;;;;;;;20.25;9.57;;;;;;;;;;5059796;28;20016;-88
2023/08/19 09:57:52;;;;;;;16.00;9.30;;;;;;;;;;5055917;28;20472;-88
2023/08/19 10:00:18;;;;;;;14.15;8.00;;;;;;;;;;5058740;28;20081;-88
2023/08/19 10:02:43;;;;;;;16.80;7.47;;;;;;;;;;5064947;28;20496;-88
2023/08/19 10:05:11;;;;;;;14.73;8.00;;;;;;;;;;5044525;28;20355;-88
2023/08/19 10:07:38;;;;;;;13.88;7.95;;;;;;;;;;5066905;28;20114;-88
2023/08/19 10:10:08;;;;;;;11.63;6.63;;;;;;;;;;5064346;28;20380;-88
2023/08/19 10:12:36;;;;;;;10.38;6.53;;;;;;;;;;5066896;28;20038;-88
2023/08/19 10:15:03;;;;;;;12.00;7.70;;;;;;;;;;5057984;28;20016;-89
2023/08/19 10:17:31;;;;;;;12.32;5.82;;;;;;;;;;5059125;28;20016;-88
2023/08/19 10:20:05;;;;;;;10.32;6.60;;;;;;;;;;5075718;28;20111;-86
2023/08/19 10:22:32;;;;;;;12.52;5.68;;;;;;;;;;5074095;28;20101;-89
2023/08/19 10:24:57;;;;;;;10.73;6.22;;;;;;;;;;5052523;28;20451;-88
2023/08/19 10:27:23;;;;;;;10.55;6.32;;;;;;;;;;5060155;28;20108;-87
2023/08/19 10:29:55;;;;;;;13.40;6.35;;;;;;;;;;5054899;28;20486;-88
2023/08/19 10:32:27;;;;;;;12.55;6.70;;;;;;;;;;5064183;28;20115;-87
2023/08/19 10:35:00;;;;;;;14.93;6.78;;;;;;;;;;5055968;28;21634;-87
2023/08/19 10:37:28;;;;;;;11.70;6.65;;;;;;;;;;5069763;28;20047;-88
2023/08/19 10:40:13;;;;;;;10.52;7.03;;;;;;;;;;5072856;28;20064;-87
2023/08/19 10:42:39;;;;;;;11.05;6.85;;;;;;;;;;5043911;28;20012;-88
2023/08/19 10:45:35;;;;;;;14.77;7.80;;;;;;;;;;5071900;28;20027;-89
2023/08/19 10:48:00;;;;;;;13.32;7.00;;;;;;;;;;5075573;28;20031;-88
2023/08/19 10:50:26;;;;;;;14.07;7.13;;;;;;;;;;5050645;28;20021;-88
2023/08/19 10:52:57;;;;;;;13.18;7.03;;;;;;;;;;5055210;28;20056;-88
2023/08/19 10:55:23;;;;;;;13.50;6.22;;;;;;;;;;5053992;28;20021;-88
2023/08/19 10:57:49;;;;;;;11.98;7.07;;;;;;;;;;5077627;28;20020;-88
2023/08/19 11:00:15;;;;;;;11.57;6.60;;;;;;;;;;5062031;28;20118;-88
2023/08/19 11:02:40;;;;;;;11.55;6.90;;;;;;;;;;5068740;28;20027;-88
2023/08/19 11:05:06;;;;;;;12.50;7.28;;;;;;;;;;5057596;28;20021;-88
2023/08/19 11:07:33;;;;;;;10.20;6.35;;;;;;;;;;5064113;28;20062;-88
2023/08/19 11:09:58;;;;;;;11.25;6.75;;;;;;;;;;5059321;28;20028;-88
2023/08/19 11:12:26;;;;;;;10.63;6.38;;;;;;;;;;5055644;28;20021;-90
2023/08/19 11:14:52;;;;;;;10.23;6.38;;;;;;;;;;5069545;28;20035;-89
2023/08/19 11:17:19;;;;;;;9.48;6.50;;;;;;;;;;5071634;28;20032;-89
2023/08/19 11:19:46;;;;;;;11.82;6.63;;;;;;;;;;5063431;28;20051;-89
2023/08/19 11:22:15;;;;;;;9.27;6.00;;;;;;;;;;5091458;28;20103;-89
2023/08/19 11:24:40;;;;;;;10.27;6.30;;;;;;;;;;5060843;28;20044;-88
2023/08/19 11:27:06;;;;;;;12.80;6.45;;;;;;;;;;5054513;28;20443;-88
2023/08/19 11:29:32;;;;;;;10.90;6.25;;;;;;;;;;5068048;28;20021;-88
2023/08/19 11:31:59;;;;;;;11.90;6.93;;;;;;;;;;5081469;28;20067;-88
2023/08/19 11:34:27;;;;;;;14.27;7.78;;;;;;;;;;5086501;28;20427;-88
2023/08/19 11:36:52;;;;;;;11.35;6.10;;;;;;;;;;5072287;28;20360;-88
2023/08/19 11:39:19;;;;;;;12.98;7.07;;;;;;;;;;5081971;28;20427;-87
2023/08/19 11:41:47;;;;;;;13.27;7.97;;;;;;;;;;5065087;28;20036;-88
2023/08/19 11:44:12;;;;;;;23.25;10.20;;;;;;;;;;5059933;28;20012;-88
2023/08/19 11:46:38;;;;;;;19.92;11.95;;;;;;;;;;5066117;28;20017;-91
2023/08/19 11:49:08;;;;;;;20.52;11.77;;;;;;;;;;5062919;28;20025;-91
2023/08/19 11:51:40;;;;;;;24.05;12.20;;;;;;;;;;5077869;28;20028;-91
2023/08/19 11:54:07;;;;;;;16.55;9.73;;;;;;;;;;5051595;28;20740;-91
2023/08/19 11:56:46;;;;;;;19.10;9.65;;;;;;;;;;5047079;28;20410;-91
2023/08/19 11:59:11;;;;;;;14.15;8.43;;;;;;;;;;5057577;28;20025;-91
2023/08/19 12:01:37;;;;;;;14.57;9.05;;;;;;;;;;5055744;28;20066;-91
2023/08/19 12:04:08;;;;;;;17.83;9.07;;;;;;;;;;5057832;28;20031;-91
2023/08/19 12:06:34;;;;;;;;;;;;;;;;;;5075433;28;20020;-91
2023/08/19 12:08:59;;;;;;;13.40;8.43;;;;;;;;;;5064427;28;19908;-91
2023/08/19 12:11:31;;;;;;;15.70;8.77;;;;;;;;;;5055253;28;20425;-92
2023/08/19 12:13:56;;;;;;;18.95;9.52;;;;;;;;;;5047568;28;20429;-92
2023/08/19 12:16:24;;;;;;;19.75;10.38;;;;;;;;;;5066690;28;20017;-91
2023/08/19 12:18:49;;;;;;;19.13;8.68;;;;;;;;;;5075121;28;20017;-91
2023/08/19 12:21:15;;;;;;;17.58;10.15;;;;;;;;;;5059372;28;20069;-92
2023/08/19 12:23:40;;;;;;;23.23;11.75;;;;;;;;;;5059261;28;20479;-91
2023/08/19 12:26:05;;;;;;;22.88;11.90;;;;;;;;;;5057271;28;20438;-91
2023/08/19 12:28:31;;;;;;;29.65;13.25;;;;;;;;;;5052101;28;20020;-92
2023/08/19 12:30:56;;;;;;;34.45;15.77;;;;;;;;;;5070771;28;20024;-91
2023/08/19 12:33:22;;;;;;;33.88;15.95;;;;;;;;;;5060536;28;20070;-92
2023/08/19 12:35:48;;;;;;;33.17;15.57;;;;;;;;;;5057497;28;20115;-91
2023/08/19 12:38:14;;;;;;;25.73;14.05;;;;;;;;;;5060577;28;20437;-91
2023/08/19 12:40:40;;;;;;;30.65;14.30;;;;;;;;;;5073902;28;20031;-91
2023/08/19 12:43:05;;;;;;;27.67;12.93;;;;;;;;;;5064121;28;20020;-89
2023/08/19 12:45:31;;;;;;;28.05;12.82;;;;;;;;;;5074489;28;20009;-91
2023/08/19 12:47:56;;;;;;;31.67;15.07;;;;;;;;;;5057175;28;20024;-91
2023/08/19 12:50:21;;;;;;;32.15;15.45;;;;;;;;;;5061599;28;20116;-91
2023/08/19 12:52:50;;;;;;;33.65;16.52;;;;;;;;;;5054483;28;20059;-90
2023/08/19 12:55:22;;;;;;;24.77;12.93;;;;;;;;;;5057062;28;20013;-90
2023/08/19 12:57:48;;;;;;;17.45;10.30;;;;;;;;;;5061600;28;20379;-91
2023/08/19 13:00:13;;;;;;;16.92;10.32;;;;;;;;;;5057751;28;20547;-91
2023/08/19 13:02:39;;;;;;;17.20;10.68;;;;;;;;;;5061112;28;20077;-90
2023/08/19 13:05:05;;;;;;;17.13;10.35;;;;;;;;;;5057303;28;20016;-89
2023/08/19 13:07:31;;;;;;;15.98;8.95;;;;;;;;;;5060134;28;20021;-88
2023/08/19 13:09:59;;;;;;;14.65;7.85;;;;;;;;;;5058355;28;20028;-89
2023/08/19 13:12:25;;;;;;;18.83;8.27;;;;;;;;;;5074878;28;20028;-90
2023/08/19 13:14:51;;;;;;;18.65;10.15;;;;;;;;;;5054939;28;20021;-90
2023/08/19 13:17:16;;;;;;;13.93;8.48;;;;;;;;;;5063393;28;20027;-89
2023/08/19 13:19:42;;;;;;;15.93;8.57;;;;;;;;;;5077706;28;20039;-90
2023/08/19 13:22:07;;;;;;;16.20;8.82;;;;;;;;;;5073671;28;20021;-90
2023/08/19 13:24:32;;;;;;;13.73;8.30;;;;;;;;;;5067937;28;20335;-90
2023/08/19 13:26:58;;;;;;;15.35;7.13;;;;;;;;;;5063087;28;20031;-90
2023/08/19 13:29:23;;;;;;;12.80;7.88;;;;;;;;;;5056977;28;20012;-87
2023/08/19 13:31:49;;;;;;;15.98;8.20;;;;;;;;;;5069698;28;20016;-89
2023/08/19 13:34:14;;;;;;;14.90;8.25;;;;;;;;;;5057875;28;20062;-88
2023/08/19 13:36:39;;;;;;;13.95;8.00;;;;;;;;;;5056712;28;20020;-89
2023/08/19 13:39:05;;;;;;;12.90;7.65;;;;;;;;;;5056204;28;20017;-88
2023/08/19 13:41:31;;;;;;;13.73;6.78;;;;;;;;;;5055765;28;20020;-89
2023/08/19 13:43:57;;;;;;;9.20;4.50;;;;;;;;;;5057354;28;20028;-88
2023/08/19 13:46:24;;;;;;;6.15;3.53;;;;;;;;;;5072608;28;20028;-87
2023/08/19 13:48:50;;;;;;;5.32;2.92;;;;;;;;;;5066634;28;20432;-89
2023/08/19 13:51:18;;;;;;;5.88;2.55;;;;;;;;;;5083619;28;20077;-89
2023/08/19 13:53:43;;;;;;;4.88;2.60;;;;;;;;;;5059279;28;20467;-88
2023/08/19 13:56:08;;;;;;;4.75;2.67;;;;;;;;;;5058274;28;20103;-88
2023/08/19 13:58:35;;;;;;;6.82;2.78;;;;;;;;;;5064095;28;20019;-88
2023/08/19 14:01:00;;;;;;;7.45;2.50;;;;;;;;;;5064886;28;20384;-88
2023/08/19 14:03:26;;;;;;;5.10;2.53;;;;;;;;;;5066793;28;20059;-88
2023/08/19 14:05:52;;;;;;;5.68;2.53;;;;;;;;;;5065293;28;20017;-87
2023/08/19 14:08:17;;;;;;;5.22;2.42;;;;;;;;;;5080790;28;20048;-88
2023/08/19 14:10:43;;;;;;;8.52;2.45;;;;;;;;;;5073362;28;20474;-89
2023/08/19 14:13:08;;;;;;;5.97;2.55;;;;;;;;;;5061815;28;20029;-89
2023/08/19 14:15:33;;;;;;;7.13;2.53;;;;;;;;;;5087904;28;20123;-85
2023/08/19 14:18:02;;;;;;;5.53;2.30;;;;;;;;;;5101849;28;20132;-88
2023/08/19 14:20:28;;;;;;;6.60;2.75;;;;;;;;;;5094170;28;20012;-88
2023/08/19 14:22:53;;;;;;;3.92;2.40;;;;;;;;;;5053905;28;20040;-87
2023/08/19 14:25:19;;;;;;;8.07;2.92;;;;;;;;;;5067246;28;20027;-89
2023/08/19 14:27:44;;;;;;;10.10;3.28;;;;;;;;;;5057917;28;20051;-87